createdAt,value
2019-05-22T00:00:08.747Z,9.18
2019-05-22T00:01:55.970Z,9.22
2019-05-22T00:03:36.339Z,9.20
2019-05-22T00:05:19.252Z,9.21
2019-05-22T00:06:57.188Z,9.20
2019-05-22T00:08:37.562Z,9.19
2019-05-22T00:10:15.234Z,9.12
2019-05-22T00:11:54.926Z,9.12
2019-05-22T00:13:32.908Z,9.11
2019-05-22T00:15:17.133Z,9.12
2019-05-22T00:16:52.645Z,9.08
2019-05-22T00:18:29.750Z,9.08
2019-05-22T00:20:07.006Z,9.09
2019-05-22T00:21:43.147Z,9.11
2019-05-22T00:23:19.070Z,9.11
2019-05-22T00:24:55.599Z,9.08
2019-05-22T00:26:33.435Z,9.09
2019-05-22T00:28:11.554Z,9.15
2019-05-22T00:29:47.470Z,9.13
2019-05-22T00:31:24.483Z,9.14
2019-05-22T00:33:02.674Z,9.15
2019-05-22T00:34:38.957Z,9.11
2019-05-22T00:36:14.663Z,9.10
2019-05-22T00:37:50.418Z,9.15
2019-05-22T00:39:27.645Z,9.25
2019-05-22T00:41:11.658Z,9.24
2019-05-22T00:43:03.230Z,9.16
2019-05-22T00:44:29.643Z,9.09
2019-05-22T00:46:06.041Z,9.08
2019-05-22T00:47:47.492Z,9.11
2019-05-22T00:49:25.250Z,9.11
2019-05-22T00:51:14.809Z,9.09
2019-05-22T00:53:02.497Z,9.13
2019-05-22T00:54:55.888Z,9.08
2019-05-22T00:56:55.795Z,9.04
2019-05-22T00:58:44.983Z,9.03
2019-05-22T01:00:25.469Z,9.05
2019-05-22T01:02:06.632Z,9.06
2019-05-22T01:03:43.785Z,9.06
2019-05-22T01:05:22.339Z,9.08
2019-05-22T01:06:58.817Z,9.06
2019-05-22T01:08:37.037Z,9.01
2019-05-22T01:10:16.165Z,9.03
2019-05-22T01:11:53.299Z,9.06
2019-05-22T01:13:31.276Z,9.04
2019-05-22T01:15:10.054Z,9.05
2019-05-22T01:16:46.843Z,9.06
2019-05-22T01:18:24.337Z,9.05
2019-05-22T01:20:01.596Z,9.02
2019-05-22T01:21:38.522Z,9.10
2019-05-22T01:23:18.915Z,9.05
2019-05-22T01:24:57.533Z,9.03
2019-05-22T01:26:33.853Z,9.02
2019-05-22T01:28:13.201Z,9.01
2019-05-22T01:29:51.048Z,9.04
2019-05-22T01:31:39.903Z,9.05
2019-05-22T01:33:20.378Z,9.06
2019-05-22T01:34:56.051Z,9.07
2019-05-22T01:36:45.181Z,9.08
2019-05-22T01:38:26.011Z,9.09
2019-05-22T01:40:06.082Z,9.03
2019-05-22T01:41:42.916Z,9.04
2019-05-22T01:43:24.499Z,9.05
2019-05-22T01:45:06.584Z,9.06
2019-05-22T01:46:37.971Z,9.05
2019-05-22T01:48:18.305Z,9.04
2019-05-22T01:49:55.054Z,9.04
2019-05-22T01:51:31.994Z,9.05
2019-05-22T01:53:12.706Z,9.01
2019-05-22T01:54:51.094Z,9.02
2019-05-22T01:56:30.163Z,9.03
2019-05-22T01:58:06.962Z,9.02
2019-05-22T01:59:42.514Z,9.03
2019-05-22T02:01:20.975Z,9.09
2019-05-22T02:02:56.213Z,9.05
2019-05-22T02:04:32.577Z,9.08
2019-05-22T02:06:08.034Z,9.04
2019-05-22T02:07:43.778Z,9.05
2019-05-22T02:09:31.277Z,9.08
2019-05-22T02:11:07.562Z,9.05
2019-05-22T02:12:52.865Z,9.03
2019-05-22T02:14:28.859Z,8.98
2019-05-22T02:16:04.995Z,8.97
2019-05-22T02:17:40.718Z,8.96
2019-05-22T02:19:17.494Z,8.99
2019-05-22T02:20:53.680Z,9.04
2019-05-22T02:22:29.970Z,9.04
2019-05-22T02:24:08.148Z,9.05
2019-05-22T02:25:47.513Z,9.00
2019-05-22T02:27:25.099Z,8.99
2019-05-22T02:29:00.540Z,8.96
2019-05-22T02:30:37.033Z,8.97
2019-05-22T02:32:15.546Z,8.97
2019-05-22T02:34:09.562Z,9.02
2019-05-22T02:35:47.460Z,8.94
2019-05-22T02:37:23.359Z,8.95
2019-05-22T02:39:00.116Z,8.98
2019-05-22T02:40:35.477Z,8.98
2019-05-22T02:42:18.578Z,8.97
2019-05-22T02:43:54.505Z,8.92
2019-05-22T02:45:30.803Z,8.96
2019-05-22T02:47:18.891Z,8.95
2019-05-22T02:48:46.905Z,8.96
2019-05-22T02:50:29.064Z,8.98
2019-05-22T02:52:06.521Z,9.01
2019-05-22T02:53:44.228Z,8.96
2019-05-22T02:55:19.562Z,8.95
2019-05-22T02:56:56.129Z,8.95
2019-05-22T02:58:34.858Z,8.96
2019-05-22T03:00:14.434Z,8.97
2019-05-22T03:01:52.313Z,8.93
2019-05-22T03:03:32.678Z,8.95
2019-05-22T03:05:12.346Z,8.94
2019-05-22T03:06:48.293Z,8.94
2019-05-22T03:08:24.029Z,8.92
2019-05-22T03:09:59.600Z,8.96
2019-05-22T03:11:38.046Z,8.99
2019-05-22T03:13:13.843Z,8.98
2019-05-22T03:14:49.737Z,8.98
2019-05-22T03:16:25.273Z,8.99
2019-05-22T03:18:05.961Z,8.95
2019-05-22T03:19:45.074Z,8.97
2019-05-22T03:21:20.472Z,8.98
2019-05-22T03:23:40.476Z,8.99
2019-05-22T03:25:18.176Z,8.98
2019-05-22T03:26:53.905Z,8.92
2019-05-22T03:28:29.911Z,8.91
2019-05-22T03:30:12.713Z,8.89
2019-05-22T03:31:49.874Z,8.87
2019-05-22T03:33:25.562Z,8.90
2019-05-22T03:35:01.351Z,8.92
2019-05-22T03:36:37.290Z,8.96
2019-05-22T03:38:13.808Z,8.95
2019-05-22T03:39:49.199Z,8.94
2019-05-22T03:41:24.883Z,8.95
2019-05-22T03:43:03.060Z,8.92
2019-05-22T03:44:38.724Z,8.92
2019-05-22T03:46:35.001Z,8.92
2019-05-22T03:48:13.667Z,8.92
2019-05-22T03:49:49.313Z,8.89
2019-05-22T03:51:26.385Z,8.84
2019-05-22T03:53:13.168Z,8.84
2019-05-22T03:54:49.447Z,8.85
2019-05-22T03:56:26.729Z,8.85
2019-05-22T03:58:02.713Z,8.84
2019-05-22T03:59:42.788Z,8.82
2019-05-22T04:01:19.935Z,8.84
2019-05-22T04:02:55.746Z,8.84
2019-05-22T04:04:36.915Z,8.85
2019-05-22T04:06:13.386Z,8.85
2019-05-22T04:07:54.270Z,8.81
2019-05-22T04:09:35.153Z,8.81
2019-05-22T04:11:11.518Z,8.82
2019-05-22T04:12:48.019Z,8.82
2019-05-22T04:14:25.933Z,8.82
2019-05-22T04:16:04.200Z,8.80
2019-05-22T04:17:40.194Z,8.76
2019-05-22T04:19:16.687Z,8.77
2019-05-22T04:20:53.890Z,8.82
2019-05-22T04:22:29.665Z,8.85
2019-05-22T04:24:05.402Z,8.84
2019-05-22T04:25:41.424Z,8.84
2019-05-22T04:27:18.154Z,8.83
2019-05-22T04:28:57.493Z,8.84
2019-05-22T04:30:33.446Z,8.78
2019-05-22T04:32:18.917Z,8.78
2019-05-22T04:33:57.727Z,8.79
2019-05-22T04:35:33.685Z,8.83
2019-05-22T04:37:11.537Z,8.84
2019-05-22T04:38:47.443Z,8.82
2019-05-22T04:40:57.156Z,8.81
2019-05-22T04:42:32.802Z,8.83
2019-05-22T04:44:07.988Z,8.80
2019-05-22T04:45:43.647Z,8.78
2019-05-22T04:47:19.348Z,8.75
2019-05-22T04:48:55.837Z,8.80
2019-05-22T04:50:31.464Z,8.74
2019-05-22T04:52:07.169Z,8.71
2019-05-22T04:53:42.567Z,8.68
2019-05-22T04:55:19.185Z,8.67
2019-05-22T04:56:54.721Z,8.61
2019-05-22T04:58:32.123Z,8.50
2019-05-22T05:00:09.348Z,8.49
2019-05-22T05:01:45.675Z,8.37
2019-05-22T05:03:21.254Z,8.30
2019-05-22T05:04:58.041Z,8.23
2019-05-22T05:06:36.176Z,8.18
2019-05-22T05:08:13.058Z,8.09
2019-05-22T05:09:48.553Z,8.11
2019-05-22T05:11:26.221Z,8.09
2019-05-22T05:13:01.365Z,8.03
2019-05-22T05:14:37.898Z,8.00
2019-05-22T05:16:13.078Z,7.93
2019-05-22T05:17:48.898Z,7.90
2019-05-22T05:19:27.737Z,7.79
2019-05-22T05:21:05.659Z,7.76
2019-05-22T05:22:45.610Z,7.67
2019-05-22T05:24:21.608Z,7.74
2019-05-22T05:25:57.861Z,7.73
2019-05-22T05:27:36.186Z,7.74
2019-05-22T05:29:26.516Z,7.78
2019-05-22T05:31:02.465Z,7.80
2019-05-22T05:32:40.230Z,7.77
2019-05-22T05:34:56.392Z,7.80
2019-05-22T05:36:32.918Z,7.75
2019-05-22T05:38:08.110Z,7.74
2019-05-22T05:40:29.177Z,7.74
2019-05-22T05:42:06.907Z,7.79
2019-05-22T05:43:42.214Z,7.84
2019-05-22T05:45:17.863Z,7.77
2019-05-22T05:46:54.873Z,7.76
2019-05-22T05:48:31.874Z,7.89
2019-05-22T05:50:15.040Z,7.81
2019-05-22T05:51:49.180Z,7.79
2019-05-22T05:53:26.552Z,7.78
2019-05-22T05:55:03.211Z,7.86
2019-05-22T05:56:39.609Z,7.89
2019-05-22T05:58:35.080Z,7.80
2019-05-22T06:00:13.165Z,7.83
2019-05-22T06:01:51.678Z,7.89
2019-05-22T06:03:42.816Z,7.92
2019-05-22T06:05:18.725Z,7.86
2019-05-22T06:07:22.370Z,7.92
2019-05-22T06:08:59.919Z,7.87
2019-05-22T06:11:30.664Z,7.94
2019-05-22T06:13:06.861Z,7.96
2019-05-22T06:14:42.620Z,7.91
2019-05-22T06:17:02.260Z,7.85
2019-05-22T06:18:39.338Z,7.88
2019-05-22T06:20:23.110Z,7.97
2019-05-22T06:21:59.239Z,7.87
2019-05-22T06:24:24.090Z,7.84
2019-05-22T06:26:00.542Z,7.86
2019-05-22T06:27:55.193Z,7.95
2019-05-22T06:29:57.657Z,7.81
2019-05-22T06:31:42.481Z,7.81
2019-05-22T06:33:34.471Z,7.80
2019-05-22T06:35:13.009Z,7.85
2019-05-22T06:36:49.446Z,7.83
2019-05-22T06:38:57.953Z,7.88
2019-05-22T06:40:34.249Z,7.85
2019-05-22T06:42:09.664Z,7.88
2019-05-22T06:44:45.019Z,7.90
2019-05-22T06:46:49.366Z,7.96
2019-05-22T06:48:28.502Z,7.85
2019-05-22T06:50:04.218Z,7.93
2019-05-22T06:51:39.846Z,7.99
2019-05-22T06:53:23.139Z,8.03
2019-05-22T06:54:57.320Z,8.10
2019-05-22T06:59:17.927Z,7.95
2019-05-22T07:00:59.653Z,7.86
2019-05-22T07:02:40.113Z,7.85
2019-05-22T07:04:16.562Z,7.89
2019-05-22T07:05:58.055Z,7.87
2019-05-22T07:07:33.750Z,7.86
2019-05-22T07:09:12.081Z,7.84
2019-05-22T07:10:50.029Z,7.81
2019-05-22T07:12:25.879Z,7.79
2019-05-22T07:14:01.842Z,7.83
2019-05-22T07:15:48.976Z,7.79
2019-05-22T07:17:26.949Z,7.88
2019-05-22T07:19:03.803Z,7.98
2019-05-22T07:20:41.213Z,8.01
2019-05-22T07:22:17.333Z,7.93
2019-05-22T07:23:53.654Z,7.93
2019-05-22T07:25:31.578Z,7.94
2019-05-22T07:27:27.306Z,7.88
2019-05-22T07:29:05.167Z,7.81
2019-05-22T07:30:46.563Z,7.97
2019-05-22T07:32:24.946Z,7.88
2019-05-22T07:34:00.464Z,7.75
2019-05-22T07:35:50.266Z,7.67
2019-05-22T07:37:23.242Z,7.67
2019-05-22T07:38:54.896Z,7.66
2019-05-22T07:40:34.331Z,7.59
2019-05-22T07:42:09.821Z,7.56
2019-05-22T07:43:45.205Z,7.49
2019-05-22T07:45:21.472Z,7.59
2019-05-22T07:46:57.134Z,7.65
2019-05-22T07:48:33.173Z,7.62
2019-05-22T07:50:09.653Z,7.63
2019-05-22T07:51:57.474Z,7.62
2019-05-22T07:53:28.958Z,7.64
2019-05-22T07:55:04.445Z,7.66
2019-05-22T07:56:42.924Z,7.74
2019-05-22T07:58:21.664Z,7.83
2019-05-22T08:00:00.410Z,7.81
2019-05-22T08:01:42.233Z,7.99
2019-05-22T08:03:23.994Z,8.07
2019-05-22T08:05:00.245Z,8.00
2019-05-22T08:06:40.325Z,8.08
2019-05-22T08:08:21.475Z,8.10
2019-05-22T08:10:03.924Z,8.18
2019-05-22T08:14:12.298Z,7.96
2019-05-22T08:15:54.111Z,8.07
2019-05-22T08:17:36.296Z,8.22
2019-05-22T08:19:11.424Z,8.09
2019-05-22T08:20:47.277Z,8.20
2019-05-22T08:22:25.792Z,8.11
2019-05-22T08:24:01.735Z,8.37
2019-05-22T08:25:36.941Z,8.33
2019-05-22T08:27:13.114Z,8.35
2019-05-22T08:28:49.864Z,8.45
2019-05-22T08:30:25.500Z,8.47
2019-05-22T08:32:04.002Z,8.31
2019-05-22T08:33:47.538Z,8.43
2019-05-22T08:35:23.408Z,8.39
2019-05-22T08:36:59.810Z,8.46
2019-05-22T08:38:35.766Z,8.58
2019-05-22T08:40:23.078Z,8.55
2019-05-22T08:41:59.237Z,8.55
2019-05-22T08:44:13.655Z,8.36
2019-05-22T08:45:37.881Z,8.55
2019-05-22T08:47:14.793Z,8.56
2019-05-22T08:48:50.098Z,8.59
2019-05-22T08:50:27.237Z,8.67
2019-05-22T08:52:22.125Z,8.53
2019-05-22T08:53:48.213Z,8.39
2019-05-22T08:55:26.333Z,8.46
2019-05-22T08:57:06.087Z,8.53
2019-05-22T08:58:52.111Z,8.62
2019-05-22T09:00:38.839Z,8.72
2019-05-22T09:02:17.269Z,8.66
2019-05-22T09:03:53.803Z,8.73
2019-05-22T09:05:31.989Z,8.65
2019-05-22T09:07:08.308Z,8.61
2019-05-22T09:08:47.206Z,9.01
2019-05-22T09:10:26.089Z,8.95
2019-05-22T09:12:00.809Z,8.89
2019-05-22T09:13:36.512Z,8.96
2019-05-22T09:15:14.664Z,9.18
2019-05-22T09:16:50.669Z,9.38
2019-05-22T09:18:26.971Z,9.66
2019-05-22T09:20:03.565Z,9.45
2019-05-22T09:21:40.653Z,9.09
2019-05-22T09:23:18.565Z,9.19
2019-05-22T09:24:54.011Z,9.24
2019-05-22T09:26:33.385Z,9.34
2019-05-22T09:28:08.531Z,9.11
2019-05-22T09:29:45.269Z,9.33
2019-05-22T09:31:22.669Z,9.45
2019-05-22T09:33:03.738Z,9.25
2019-05-22T09:34:41.640Z,9.42
2019-05-22T09:36:19.164Z,9.43
2019-05-22T09:38:00.735Z,9.23
2019-05-22T09:39:38.042Z,9.21
2019-05-22T09:41:16.095Z,9.13
2019-05-22T09:42:51.094Z,9.05
2019-05-22T09:44:26.699Z,8.88
2019-05-22T09:46:06.549Z,8.92
2019-05-22T09:47:52.148Z,9.04
2019-05-22T09:49:41.609Z,9.16
2019-05-22T09:51:17.586Z,9.12
2019-05-22T09:52:57.506Z,8.88
2019-05-22T09:54:33.865Z,9.02
2019-05-22T09:56:09.628Z,9.17
2019-05-22T09:57:45.691Z,9.44
2019-05-22T09:59:23.847Z,9.83
2019-05-22T10:01:16.484Z,9.96
2019-05-22T10:02:55.506Z,9.94
2019-05-22T10:04:31.147Z,9.68
2019-05-22T10:06:12.428Z,9.88
2019-05-22T10:07:59.462Z,9.96
2019-05-22T10:09:26.353Z,10.02
2019-05-22T10:11:02.803Z,10.26
2019-05-22T10:12:39.113Z,10.29
2019-05-22T10:14:17.495Z,10.48
2019-05-22T10:15:53.636Z,10.79
2019-05-22T10:17:29.275Z,11.01
2019-05-22T10:19:06.554Z,11.68
2019-05-22T10:20:41.926Z,12.25
2019-05-22T10:22:20.976Z,12.52
2019-05-22T10:23:59.587Z,12.04
2019-05-22T10:25:36.384Z,12.33
2019-05-22T10:27:12.253Z,12.28
2019-05-22T10:29:21.638Z,12.38
2019-05-22T10:30:58.995Z,12.11
2019-05-22T10:32:40.339Z,11.96
2019-05-22T10:34:16.625Z,11.87
2019-05-22T10:35:52.456Z,12.04
2019-05-22T10:37:30.471Z,12.05
2019-05-22T10:39:08.707Z,11.52
2019-05-22T10:40:58.266Z,11.36
2019-05-22T10:42:36.211Z,11.56
2019-05-22T10:44:19.243Z,11.80
2019-05-22T10:45:56.329Z,12.39
2019-05-22T10:47:31.974Z,12.33
2019-05-22T10:49:10.915Z,12.64
2019-05-22T10:50:48.952Z,12.57
2019-05-22T10:52:27.079Z,13.26
2019-05-22T10:54:14.581Z,13.10
2019-05-22T10:55:52.056Z,13.14
2019-05-22T10:57:32.384Z,13.50
2019-05-22T10:59:10.523Z,12.97
2019-05-22T11:00:47.407Z,12.89
2019-05-22T11:02:23.357Z,13.06
2019-05-22T11:04:01.654Z,12.81
2019-05-22T11:05:38.326Z,12.69
2019-05-22T11:07:16.197Z,13.07
2019-05-22T11:08:52.194Z,13.33
2019-05-22T11:10:45.017Z,13.61
2019-05-22T11:12:20.433Z,14.35
2019-05-22T11:14:01.225Z,14.11
2019-05-22T11:15:34.091Z,13.11
2019-05-22T11:17:11.232Z,13.15
2019-05-22T11:18:49.064Z,13.31
2019-05-22T11:20:26.484Z,13.16
2019-05-22T11:22:04.409Z,13.17
2019-05-22T11:23:52.186Z,12.98
2019-05-22T11:25:20.805Z,13.35
2019-05-22T11:26:58.480Z,13.26
2019-05-22T11:28:34.231Z,13.44
2019-05-22T11:30:10.594Z,13.54
2019-05-22T11:31:46.690Z,13.10
2019-05-22T11:33:23.063Z,12.88
2019-05-22T11:35:02.106Z,13.36
2019-05-22T11:36:37.926Z,13.68
2019-05-22T11:38:15.861Z,14.14
2019-05-22T11:39:53.466Z,14.43
2019-05-22T11:41:35.446Z,14.02
2019-05-22T11:43:12.223Z,13.43
2019-05-22T11:44:47.445Z,13.32
2019-05-22T11:46:28.137Z,13.32
2019-05-22T11:48:04.581Z,13.38
2019-05-22T11:49:43.696Z,13.58
2019-05-22T11:51:22.770Z,13.72
2019-05-22T11:52:58.936Z,13.70
2019-05-22T11:54:39.286Z,14.04
2019-05-22T11:56:21.137Z,14.61
2019-05-22T11:58:04.276Z,14.35
2019-05-22T11:59:46.042Z,14.37
2019-05-22T12:01:28.085Z,14.46
2019-05-22T12:03:15.447Z,14.31
2019-05-22T12:04:54.452Z,14.84
2019-05-22T12:06:32.147Z,14.73
2019-05-22T12:08:17.387Z,15.30
2019-05-22T12:09:57.453Z,14.38
2019-05-22T12:11:32.843Z,14.24
2019-05-22T12:13:09.567Z,14.57
2019-05-22T12:14:45.295Z,15.13
2019-05-22T12:16:22.020Z,15.16
2019-05-22T12:18:02.731Z,15.35
2019-05-22T12:19:38.270Z,14.80
2019-05-22T12:21:17.537Z,14.44
2019-05-22T12:22:57.371Z,15.65
2019-05-22T12:24:39.725Z,15.28
2019-05-22T12:26:16.998Z,15.39
2019-05-22T12:27:53.053Z,16.03
2019-05-22T12:29:30.865Z,16.22
2019-05-22T12:31:07.782Z,15.82
2019-05-22T12:32:45.655Z,15.34
2019-05-22T12:34:22.546Z,14.87
2019-05-22T12:35:58.406Z,14.92
2019-05-22T12:37:36.172Z,15.28
2019-05-22T12:39:12.697Z,15.26
2019-05-22T12:40:52.555Z,15.56
2019-05-22T12:42:31.299Z,16.27
2019-05-22T12:44:07.105Z,15.55
2019-05-22T12:45:48.602Z,15.33
2019-05-22T12:47:24.614Z,15.07
2019-05-22T12:49:01.467Z,15.14
2019-05-22T12:50:41.441Z,14.95
2019-05-22T12:52:20.222Z,14.93
2019-05-22T12:54:02.123Z,15.35
2019-05-22T12:55:35.607Z,15.37
2019-05-22T12:57:17.470Z,15.30
2019-05-22T12:58:55.052Z,15.07
2019-05-22T13:00:32.432Z,14.62
2019-05-22T13:02:33.479Z,14.48
2019-05-22T13:04:16.527Z,14.17
2019-05-22T13:05:57.374Z,13.91
2019-05-22T13:07:40.277Z,14.47
2019-05-22T13:09:15.990Z,14.26
2019-05-22T13:10:54.612Z,14.51
2019-05-22T13:12:30.412Z,14.45
2019-05-22T13:14:08.597Z,14.45
2019-05-22T13:15:52.037Z,14.39
2019-05-22T13:17:27.755Z,14.18
2019-05-22T13:19:06.068Z,14.75
2019-05-22T13:20:47.674Z,15.68
2019-05-22T13:22:25.522Z,15.75
2019-05-22T13:24:04.965Z,16.16
2019-05-22T13:26:10.576Z,16.06
2019-05-22T13:27:48.690Z,16.41
2019-05-22T13:29:24.941Z,16.22
2019-05-22T13:31:03.265Z,16.26
2019-05-22T13:32:40.408Z,16.04
2019-05-22T13:34:16.250Z,15.74
2019-05-22T13:35:56.226Z,15.00
2019-05-22T13:37:36.317Z,14.67
2019-05-22T13:39:12.881Z,14.55
2019-05-22T13:40:50.453Z,14.37
2019-05-22T13:42:28.825Z,14.24
2019-05-22T13:44:04.198Z,14.26
2019-05-22T13:45:43.613Z,14.23
2019-05-22T13:47:19.544Z,14.35
2019-05-22T13:48:58.515Z,14.23
2019-05-22T13:50:34.096Z,14.22
2019-05-22T13:52:16.727Z,13.98
2019-05-22T13:53:54.354Z,13.95
2019-05-22T13:55:30.466Z,14.21
2019-05-22T13:57:07.096Z,14.47
2019-05-22T13:58:43.088Z,14.86
2019-05-22T14:00:24.076Z,14.78
2019-05-22T14:02:00.482Z,15.32
2019-05-22T14:03:35.968Z,15.85
2019-05-22T14:05:15.253Z,16.11
2019-05-22T14:06:55.274Z,16.06
2019-05-22T14:08:34.388Z,16.63
2019-05-22T14:10:12.757Z,16.43
2019-05-22T14:11:50.704Z,16.22
2019-05-22T14:13:27.789Z,16.65
2019-05-22T14:15:06.587Z,16.14
2019-05-22T14:16:49.962Z,15.98
2019-05-22T14:18:26.135Z,15.44
2019-05-22T14:20:17.269Z,15.49
2019-05-22T14:21:59.312Z,15.21
2019-05-22T14:23:40.882Z,15.15
2019-05-22T14:25:17.615Z,15.54
2019-05-22T14:26:59.389Z,15.51
2019-05-22T14:28:36.242Z,15.07
2019-05-22T14:30:20.202Z,14.92
2019-05-22T14:31:58.770Z,15.01
2019-05-22T14:33:40.592Z,14.88
2019-05-22T14:35:15.053Z,14.62
2019-05-22T14:36:51.169Z,14.68
2019-05-22T14:38:27.291Z,14.76
2019-05-22T14:40:06.041Z,14.78
2019-05-22T14:41:41.734Z,14.72
2019-05-22T14:43:25.232Z,14.75
2019-05-22T14:45:02.716Z,14.88
2019-05-22T14:46:42.317Z,15.29
2019-05-22T14:48:21.539Z,15.73
2019-05-22T14:49:56.982Z,16.22
2019-05-22T14:51:36.413Z,16.36
2019-05-22T14:53:12.229Z,16.61
2019-05-22T14:54:48.322Z,17.19
2019-05-22T14:56:28.785Z,16.92
2019-05-22T14:58:12.366Z,17.00
2019-05-22T14:59:50.413Z,16.60
2019-05-22T15:01:28.619Z,16.29
2019-05-22T15:03:05.434Z,15.72
2019-05-22T15:04:46.345Z,15.36
2019-05-22T15:06:22.420Z,15.20
2019-05-22T15:08:05.011Z,14.93
2019-05-22T15:09:39.759Z,14.92
2019-05-22T15:11:19.032Z,15.04
2019-05-22T15:13:05.059Z,15.08
2019-05-22T15:14:43.078Z,15.03
2019-05-22T15:16:19.184Z,14.97
2019-05-22T15:17:56.921Z,15.18
2019-05-22T15:19:34.995Z,15.49
2019-05-22T15:21:11.840Z,15.79
2019-05-22T15:22:47.572Z,15.80
2019-05-22T15:24:27.818Z,15.55
2019-05-22T15:26:05.148Z,15.28
2019-05-22T15:27:43.219Z,15.76
2019-05-22T15:29:29.121Z,16.03
2019-05-22T15:31:12.512Z,16.00
2019-05-22T15:32:51.101Z,16.27
2019-05-22T15:34:32.483Z,16.48
2019-05-22T15:36:13.372Z,16.42
2019-05-22T15:38:00.813Z,16.10
2019-05-22T15:39:37.436Z,16.10
2019-05-22T15:41:33.319Z,16.10
2019-05-22T15:43:15.288Z,16.20
2019-05-22T15:44:51.235Z,15.93
2019-05-22T15:46:31.566Z,16.15
2019-05-22T15:48:15.640Z,16.25
2019-05-22T15:49:56.772Z,16.40
2019-05-22T15:51:35.210Z,16.13
2019-05-22T15:53:15.202Z,15.74
2019-05-22T15:54:51.563Z,15.71
2019-05-22T15:56:34.035Z,15.46
2019-05-22T15:58:18.201Z,15.52
2019-05-22T15:59:55.221Z,15.41
2019-05-22T16:01:34.260Z,15.37
2019-05-22T16:03:15.748Z,15.43
2019-05-22T16:04:52.093Z,15.37
2019-05-22T16:06:34.192Z,15.44
2019-05-22T16:08:23.420Z,15.61
2019-05-22T16:10:01.237Z,15.52
2019-05-22T16:11:42.481Z,15.38
2019-05-22T16:13:26.962Z,15.44
2019-05-22T16:15:06.019Z,15.48
2019-05-22T16:16:44.580Z,15.52
2019-05-22T16:18:25.351Z,15.42
2019-05-22T16:20:07.803Z,15.11
2019-05-22T16:21:52.899Z,15.03
2019-05-22T16:23:33.183Z,15.03
2019-05-22T16:25:15.293Z,15.27
2019-05-22T16:26:51.582Z,15.26
2019-05-22T16:28:33.267Z,15.26
2019-05-22T16:30:17.828Z,15.15
2019-05-22T16:31:56.925Z,15.20
2019-05-22T16:33:35.038Z,15.24
2019-05-22T16:35:11.476Z,15.08
2019-05-22T16:36:49.062Z,15.12
2019-05-22T16:38:36.387Z,14.87
2019-05-22T16:40:12.433Z,14.96
2019-05-22T16:41:47.961Z,14.96
2019-05-22T16:43:46.810Z,15.06
2019-05-22T16:45:22.755Z,14.89
2019-05-22T16:47:28.089Z,14.91
2019-05-22T16:49:13.606Z,14.97
2019-05-22T16:51:01.626Z,14.96
2019-05-22T16:52:50.626Z,14.99
2019-05-22T16:54:30.320Z,14.91
2019-05-22T16:56:09.226Z,14.86
2019-05-22T16:57:44.831Z,14.73
2019-05-22T16:59:23.583Z,14.69
2019-05-22T17:00:59.317Z,14.75
2019-05-22T17:02:36.394Z,14.74
2019-05-22T17:04:22.033Z,14.64
2019-05-22T17:05:57.496Z,14.66
2019-05-22T17:07:50.367Z,14.70
2019-05-22T17:09:40.162Z,14.83
2019-05-22T17:11:33.357Z,15.32
2019-05-22T17:13:26.255Z,15.44
2019-05-22T17:15:04.159Z,15.90
2019-05-22T17:16:47.346Z,15.83
2019-05-22T17:18:46.026Z,16.04
2019-05-22T17:20:13.413Z,16.07
2019-05-22T17:21:49.519Z,16.01
2019-05-22T17:23:30.025Z,15.90
2019-05-22T17:25:05.947Z,15.98
2019-05-22T17:26:43.913Z,16.05
2019-05-22T17:28:19.548Z,16.06
2019-05-22T17:29:56.439Z,16.33
2019-05-22T17:31:40.975Z,16.11
2019-05-22T17:33:27.290Z,16.15
2019-05-22T17:35:00.884Z,15.90
2019-05-22T17:36:39.372Z,16.00
2019-05-22T17:38:29.932Z,15.79
2019-05-22T17:40:06.757Z,15.88
2019-05-22T17:41:47.965Z,15.82
2019-05-22T17:43:24.373Z,15.48
2019-05-22T17:45:01.072Z,15.56
2019-05-22T17:46:37.227Z,15.58
2019-05-22T17:48:13.410Z,15.47
2019-05-22T17:49:51.833Z,15.36
2019-05-22T17:51:33.213Z,15.38
2019-05-22T17:53:09.383Z,15.27
2019-05-22T17:54:55.982Z,15.31
2019-05-22T17:56:35.252Z,15.30
2019-05-22T17:58:18.522Z,15.42
2019-05-22T18:00:01.292Z,15.08
2019-05-22T18:01:40.619Z,15.00
2019-05-22T18:03:17.920Z,15.14
2019-05-22T18:05:24.224Z,14.99
2019-05-22T18:07:12.814Z,14.95
2019-05-22T18:08:52.754Z,14.92
2019-05-22T18:10:56.868Z,14.84
2019-05-22T18:12:43.891Z,14.80
2019-05-22T18:14:34.797Z,14.64
2019-05-22T18:16:12.336Z,14.60
2019-05-22T18:18:15.444Z,14.58
2019-05-22T18:19:55.922Z,14.60
2019-05-22T18:21:39.612Z,14.55
2019-05-22T18:23:24.991Z,14.52
2019-05-22T18:25:00.416Z,14.49
2019-05-22T18:26:48.198Z,14.35
2019-05-22T18:28:29.671Z,14.36
2019-05-22T18:30:08.315Z,14.34
2019-05-22T18:31:53.528Z,14.33
2019-05-22T18:33:38.752Z,14.18
2019-05-22T18:35:20.906Z,14.06
2019-05-22T18:37:01.217Z,13.91
2019-05-22T18:38:36.551Z,13.78
2019-05-22T18:40:17.078Z,13.66
2019-05-22T18:41:52.755Z,13.62
2019-05-22T18:43:44.264Z,13.49
2019-05-22T18:45:34.315Z,13.34
2019-05-22T18:47:30.301Z,13.23
2019-05-22T18:49:17.764Z,13.06
2019-05-22T18:50:54.321Z,12.87
2019-05-22T18:52:40.947Z,12.70
2019-05-22T18:56:25.906Z,12.41
2019-05-22T18:58:04.300Z,12.22
2019-05-22T18:59:51.425Z,12.09
2019-05-22T19:01:35.344Z,11.96
2019-05-22T19:03:29.184Z,11.90
2019-05-22T19:04:57.604Z,11.76
2019-05-22T19:06:33.339Z,11.63
2019-05-22T19:08:17.932Z,11.46
2019-05-22T19:09:58.640Z,11.39
2019-05-22T19:11:36.651Z,11.18
2019-05-22T19:13:16.136Z,11.01
2019-05-22T19:15:00.205Z,10.98
2019-05-22T19:16:37.552Z,10.83
2019-05-22T19:18:13.475Z,10.71
2019-05-22T19:19:53.574Z,10.63
2019-05-22T19:21:29.305Z,10.55
2019-05-22T19:23:04.880Z,10.41
2019-05-22T19:24:40.683Z,10.28
2019-05-22T19:26:17.691Z,10.30
2019-05-22T19:27:53.828Z,10.14
2019-05-22T19:29:31.187Z,10.06
2019-05-22T19:31:06.929Z,10.03
2019-05-22T19:32:46.238Z,10.00
2019-05-22T19:34:28.010Z,9.87
2019-05-22T19:36:08.694Z,9.83
2019-05-22T19:37:46.021Z,9.82
2019-05-22T19:39:22.393Z,9.69
2019-05-22T19:41:16.846Z,9.54
2019-05-22T19:42:52.749Z,9.46
2019-05-22T19:44:33.929Z,9.44
2019-05-22T19:46:12.067Z,9.47
2019-05-22T19:47:54.966Z,9.29
2019-05-22T19:49:38.292Z,9.28
2019-05-22T19:51:13.379Z,9.21
2019-05-22T19:53:17.743Z,9.12
2019-05-22T19:55:22.069Z,9.13
2019-05-22T19:57:02.084Z,9.06
2019-05-22T19:58:43.483Z,8.97
2019-05-22T20:00:25.193Z,9.04
2019-05-22T20:02:00.837Z,8.98
2019-05-22T20:05:21.532Z,9.02
2019-05-22T20:06:57.813Z,8.99
2019-05-22T20:08:36.297Z,8.93
2019-05-22T20:10:11.859Z,8.92
2019-05-22T20:11:52.093Z,8.93
2019-05-22T20:13:29.321Z,8.85
2019-05-22T20:15:24.695Z,8.85
2019-05-22T20:17:07.395Z,8.83
2019-05-22T20:18:44.999Z,8.81
2019-05-22T20:20:20.334Z,8.78
2019-05-22T20:22:00.438Z,8.78
2019-05-22T20:23:37.143Z,8.69
2019-05-22T20:25:17.538Z,8.79
2019-05-22T20:26:53.086Z,8.83
2019-05-22T20:28:29.369Z,8.71
2019-05-22T20:30:05.921Z,8.64
2019-05-22T20:31:48.440Z,8.71
2019-05-22T20:33:30.251Z,8.68
2019-05-22T20:35:07.120Z,8.66
2019-05-22T20:36:43.914Z,8.64
2019-05-22T20:38:27.127Z,8.54
2019-05-22T20:40:06.157Z,8.51
2019-05-22T20:41:41.358Z,8.44
2019-05-22T20:43:17.566Z,8.40
2019-05-22T20:44:57.394Z,8.47
2019-05-22T20:46:37.412Z,8.43
2019-05-22T20:48:25.911Z,8.31
2019-05-22T20:50:02.030Z,8.32
2019-05-22T20:51:41.440Z,8.22
2019-05-22T20:53:25.242Z,8.21
2019-05-22T20:55:15.455Z,8.19
2019-05-22T20:56:55.760Z,8.19
2019-05-22T20:58:36.976Z,8.11
2019-05-22T21:00:20.312Z,8.16
2019-05-22T21:02:11.309Z,8.07
2019-05-22T21:03:48.231Z,8.06
2019-05-22T21:05:27.591Z,8.09
2019-05-22T21:07:07.696Z,8.07
2019-05-22T21:08:47.525Z,8.01
2019-05-22T21:10:28.397Z,7.96
2019-05-22T21:12:09.821Z,7.96
2019-05-22T21:13:53.231Z,8.00
2019-05-22T21:15:35.804Z,7.98
2019-05-22T21:17:20.070Z,7.93
2019-05-22T21:19:04.493Z,7.94
2019-05-22T21:20:54.803Z,7.89
2019-05-22T21:22:34.146Z,7.89
2019-05-22T21:24:36.682Z,7.87
2019-05-22T21:26:14.357Z,7.81
2019-05-22T21:28:02.810Z,7.75
2019-05-22T21:29:41.970Z,7.71
2019-05-22T21:31:21.433Z,7.72
2019-05-22T21:33:00.367Z,7.72
2019-05-22T21:34:37.997Z,7.71
2019-05-22T21:38:17.077Z,7.73
2019-05-22T21:39:57.213Z,7.68
2019-05-22T21:41:39.346Z,7.72
2019-05-22T21:43:22.226Z,7.60
2019-05-22T21:45:03.872Z,7.55
2019-05-22T21:46:46.263Z,7.59
2019-05-22T21:48:22.884Z,7.63
2019-05-22T21:49:58.815Z,7.73
2019-05-22T21:51:38.161Z,7.69
2019-05-22T21:53:14.495Z,7.73
2019-05-22T21:54:54.191Z,7.61
2019-05-22T21:56:31.466Z,7.55
2019-05-22T21:58:10.267Z,7.50
2019-05-22T21:59:49.654Z,7.45
2019-05-22T22:01:47.953Z,7.45
2019-05-22T22:03:28.736Z,7.42
2019-05-22T22:05:05.717Z,7.44